sensor_id;sensor_type;location;lat;lon;timestamp;temperature;humidity
15083;DHT22;7640;53.116;6.878;2023-06-22T00:01:28;20.40;99.90
15083;DHT22;7640;53.116;6.878;2023-06-22T00:03:57;20.40;99.90
15083;DHT22;7640;53.116;6.878;2023-06-22T00:06:25;20.30;99.90
15083;DHT22;7640;53.116;6.878;2023-06-22T00:08:54;20.30;99.90
15083;DHT22;7640;53.116;6.878;2023-06-22T00:11:22;20.30;99.90
15083;DHT22;7640;53.116;6.878;2023-06-22T00:13:53;20.20;99.90
15083;DHT22;7640;53.116;6.878;2023-06-22T00:16:22;20.20;99.90
15083;DHT22;7640;53.116;6.878;2023-06-22T00:18:52;20.20;99.90
15083;DHT22;7640;53.116;6.878;2023-06-22T00:21:21;20.10;99.90
15083;DHT22;7640;53.116;6.878;2023-06-22T00:23:49;20.10;99.90
15083;DHT22;7640;53.116;6.878;2023-06-22T00:26:17;20.10;99.90
15083;DHT22;7640;53.116;6.878;2023-06-22T00:28:46;20.00;99.90
15083;DHT22;7640;53.116;6.878;2023-06-22T00:31:15;20.00;99.90
15083;DHT22;7640;53.116;6.878;2023-06-22T00:33:43;20.00;99.90
15083;DHT22;7640;53.116;6.878;2023-06-22T00:36:13;19.90;99.90
15083;DHT22;7640;53.116;6.878;2023-06-22T00:38:43;19.90;99.90
15083;DHT22;7640;53.116;6.878;2023-06-22T00:41:11;20.00;99.90
15083;DHT22;7640;53.116;6.878;2023-06-22T00:43:40;19.80;99.90
15083;DHT22;7640;53.116;6.878;2023-06-22T00:46:09;19.80;99.90
15083;DHT22;7640;53.116;6.878;2023-06-22T00:48:38;19.80;99.90
15083;DHT22;7640;53.116;6.878;2023-06-22T00:51:09;19.70;99.90
15083;DHT22;7640;53.116;6.878;2023-06-22T00:53:39;19.70;99.90
15083;DHT22;7640;53.116;6.878;2023-06-22T00:56:08;19.70;99.90
15083;DHT22;7640;53.116;6.878;2023-06-22T00:58:39;19.60;99.90
15083;DHT22;7640;53.116;6.878;2023-06-22T01:01:08;19.60;99.90
15083;DHT22;7640;53.116;6.878;2023-06-22T01:03:37;19.50;99.90
15083;DHT22;7640;53.116;6.878;2023-06-22T01:06:09;19.50;99.90
15083;DHT22;7640;53.116;6.878;2023-06-22T01:08:45;19.50;99.90
15083;DHT22;7640;53.116;6.878;2023-06-22T01:11:22;19.50;99.90
15083;DHT22;7640;53.116;6.878;2023-06-22T01:14:00;19.40;99.90
15083;DHT22;7640;53.116;6.878;2023-06-22T01:16:33;19.40;99.90
15083;DHT22;7640;53.116;6.878;2023-06-22T01:19:20;19.40;99.90
15083;DHT22;7640;53.116;6.878;2023-06-22T01:21:58;19.30;99.90
15083;DHT22;7640;53.116;6.878;2023-06-22T01:24:33;19.30;99.90
15083;DHT22;7640;53.116;6.878;2023-06-22T01:27:25;19.30;99.90
15083;DHT22;7640;53.116;6.878;2023-06-22T01:30:03;19.20;99.90
15083;DHT22;7640;53.116;6.878;2023-06-22T01:32:35;19.20;99.90
15083;DHT22;7640;53.116;6.878;2023-06-22T01:35:06;19.20;99.90
15083;DHT22;7640;53.116;6.878;2023-06-22T01:37:37;19.20;99.90
15083;DHT22;7640;53.116;6.878;2023-06-22T01:40:08;19.10;99.90
15083;DHT22;7640;53.116;6.878;2023-06-22T01:42:37;19.10;99.90
15083;DHT22;7640;53.116;6.878;2023-06-22T01:45:10;19.10;99.90
15083;DHT22;7640;53.116;6.878;2023-06-22T01:47:39;19.10;99.90
15083;DHT22;7640;53.116;6.878;2023-06-22T01:50:09;19.00;99.90
15083;DHT22;7640;53.116;6.878;2023-06-22T01:52:39;19.00;99.90
15083;DHT22;7640;53.116;6.878;2023-06-22T01:55:08;19.00;99.90
15083;DHT22;7640;53.116;6.878;2023-06-22T01:57:37;18.90;99.90
15083;DHT22;7640;53.116;6.878;2023-06-22T02:00:12;18.90;99.90
15083;DHT22;7640;53.116;6.878;2023-06-22T02:02:48;18.90;99.90
15083;DHT22;7640;53.116;6.878;2023-06-22T02:05:20;18.90;99.90
15083;DHT22;7640;53.116;6.878;2023-06-22T02:07:56;18.80;99.90
15083;DHT22;7640;53.116;6.878;2023-06-22T02:10:29;18.80;99.90
15083;DHT22;7640;53.116;6.878;2023-06-22T02:12:59;18.80;99.90
15083;DHT22;7640;53.116;6.878;2023-06-22T02:15:31;18.80;99.90
15083;DHT22;7640;53.116;6.878;2023-06-22T02:18:00;18.70;99.90
15083;DHT22;7640;53.116;6.878;2023-06-22T02:20:29;18.70;99.90
15083;DHT22;7640;53.116;6.878;2023-06-22T02:22:58;18.70;99.90
15083;DHT22;7640;53.116;6.878;2023-06-22T02:25:27;18.60;99.90
15083;DHT22;7640;53.116;6.878;2023-06-22T02:27:56;18.60;99.90
15083;DHT22;7640;53.116;6.878;2023-06-22T02:30:25;18.60;99.90
15083;DHT22;7640;53.116;6.878;2023-06-22T02:32:55;18.60;99.90
15083;DHT22;7640;53.116;6.878;2023-06-22T02:35:27;18.50;99.90
15083;DHT22;7640;53.116;6.878;2023-06-22T02:37:58;18.50;99.90
15083;DHT22;7640;53.116;6.878;2023-06-22T02:40:28;18.50;99.90
15083;DHT22;7640;53.116;6.878;2023-06-22T02:42:57;18.50;99.90
15083;DHT22;7640;53.116;6.878;2023-06-22T02:45:30;18.40;99.90
15083;DHT22;7640;53.116;6.878;2023-06-22T02:48:00;18.40;99.90
15083;DHT22;7640;53.116;6.878;2023-06-22T02:50:28;18.40;99.90
15083;DHT22;7640;53.116;6.878;2023-06-22T02:52:57;18.40;99.90
15083;DHT22;7640;53.116;6.878;2023-06-22T02:55:26;18.40;99.90
15083;DHT22;7640;53.116;6.878;2023-06-22T02:57:55;18.40;99.90
15083;DHT22;7640;53.116;6.878;2023-06-22T03:00:24;18.30;99.90
15083;DHT22;7640;53.116;6.878;2023-06-22T03:02:59;18.30;99.90
15083;DHT22;7640;53.116;6.878;2023-06-22T03:05:28;18.30;99.90
15083;DHT22;7640;53.116;6.878;2023-06-22T03:07:56;18.30;99.90
15083;DHT22;7640;53.116;6.878;2023-06-22T03:10:25;18.30;99.90
15083;DHT22;7640;53.116;6.878;2023-06-22T03:12:55;18.30;99.90
15083;DHT22;7640;53.116;6.878;2023-06-22T03:15:23;18.20;99.90
15083;DHT22;7640;53.116;6.878;2023-06-22T03:17:53;18.20;99.90
15083;DHT22;7640;53.116;6.878;2023-06-22T03:20:23;18.20;99.90
15083;DHT22;7640;53.116;6.878;2023-06-22T03:22:54;18.20;99.90
15083;DHT22;7640;53.116;6.878;2023-06-22T03:25:23;18.20;99.90
15083;DHT22;7640;53.116;6.878;2023-06-22T03:27:52;18.10;99.90
15083;DHT22;7640;53.116;6.878;2023-06-22T03:30:20;18.10;99.90
15083;DHT22;7640;53.116;6.878;2023-06-22T03:32:49;18.10;99.90
15083;DHT22;7640;53.116;6.878;2023-06-22T03:35:18;18.10;99.90
15083;DHT22;7640;53.116;6.878;2023-06-22T03:37:48;18.10;99.90
15083;DHT22;7640;53.116;6.878;2023-06-22T03:40:16;18.10;99.90
15083;DHT22;7640;53.116;6.878;2023-06-22T03:42:45;18.10;99.90
15083;DHT22;7640;53.116;6.878;2023-06-22T03:45:14;18.10;99.90
15083;DHT22;7640;53.116;6.878;2023-06-22T03:47:43;18.00;99.90
15083;DHT22;7640;53.116;6.878;2023-06-22T03:50:12;18.10;99.90
15083;DHT22;7640;53.116;6.878;2023-06-22T03:52:41;18.10;99.90
15083;DHT22;7640;53.116;6.878;2023-06-22T03:55:11;18.00;99.90
15083;DHT22;7640;53.116;6.878;2023-06-22T03:57:41;18.10;99.90
15083;DHT22;7640;53.116;6.878;2023-06-22T04:00:10;18.10;99.90
15083;DHT22;7640;53.116;6.878;2023-06-22T04:02:41;18.10;99.90
15083;DHT22;7640;53.116;6.878;2023-06-22T04:05:09;18.10;99.90
15083;DHT22;7640;53.116;6.878;2023-06-22T04:07:38;18.10;99.90
15083;DHT22;7640;53.116;6.878;2023-06-22T04:10:07;18.10;99.90
15083;DHT22;7640;53.116;6.878;2023-06-22T04:12:40;18.20;99.90
15083;DHT22;7640;53.116;6.878;2023-06-22T04:15:09;18.20;99.90
15083;DHT22;7640;53.116;6.878;2023-06-22T04:17:39;18.30;99.90
15083;DHT22;7640;53.116;6.878;2023-06-22T04:20:08;18.30;99.90
15083;DHT22;7640;53.116;6.878;2023-06-22T04:22:37;18.30;99.90
15083;DHT22;7640;53.116;6.878;2023-06-22T04:25:06;18.40;99.90
15083;DHT22;7640;53.116;6.878;2023-06-22T04:27:35;18.40;99.90
15083;DHT22;7640;53.116;6.878;2023-06-22T04:30:09;18.50;99.90
15083;DHT22;7640;53.116;6.878;2023-06-22T04:32:39;18.50;99.90
15083;DHT22;7640;53.116;6.878;2023-06-22T04:35:08;18.50;99.90
15083;DHT22;7640;53.116;6.878;2023-06-22T04:37:37;18.60;99.90
15083;DHT22;7640;53.116;6.878;2023-06-22T04:40:07;18.70;99.90
15083;DHT22;7640;53.116;6.878;2023-06-22T04:42:38;18.70;99.90
15083;DHT22;7640;53.116;6.878;2023-06-22T04:45:10;18.80;99.90
15083;DHT22;7640;53.116;6.878;2023-06-22T04:47:40;18.80;99.90
15083;DHT22;7640;53.116;6.878;2023-06-22T04:50:09;18.80;99.90
15083;DHT22;7640;53.116;6.878;2023-06-22T04:52:37;18.90;99.90
15083;DHT22;7640;53.116;6.878;2023-06-22T04:55:07;18.90;99.90
15083;DHT22;7640;53.116;6.878;2023-06-22T04:57:36;19.00;99.90
15083;DHT22;7640;53.116;6.878;2023-06-22T05:00:07;19.10;99.90
15083;DHT22;7640;53.116;6.878;2023-06-22T05:02:41;19.10;99.90
15083;DHT22;7640;53.116;6.878;2023-06-22T05:05:11;19.20;99.90
15083;DHT22;7640;53.116;6.878;2023-06-22T05:07:44;19.30;99.90
15083;DHT22;7640;53.116;6.878;2023-06-22T05:10:15;19.30;99.90
15083;DHT22;7640;53.116;6.878;2023-06-22T05:12:44;19.40;99.90
15083;DHT22;7640;53.116;6.878;2023-06-22T05:15:12;19.50;99.90
15083;DHT22;7640;53.116;6.878;2023-06-22T05:17:43;19.60;99.90
15083;DHT22;7640;53.116;6.878;2023-06-22T05:20:13;19.70;99.90
15083;DHT22;7640;53.116;6.878;2023-06-22T05:22:45;19.80;99.90
15083;DHT22;7640;53.116;6.878;2023-06-22T05:25:13;19.80;99.90
15083;DHT22;7640;53.116;6.878;2023-06-22T05:27:42;19.90;99.90
15083;DHT22;7640;53.116;6.878;2023-06-22T05:30:11;20.00;99.90
15083;DHT22;7640;53.116;6.878;2023-06-22T05:32:40;20.10;99.90
15083;DHT22;7640;53.116;6.878;2023-06-22T05:35:10;20.20;99.90
15083;DHT22;7640;53.116;6.878;2023-06-22T05:37:39;20.20;99.90
15083;DHT22;7640;53.116;6.878;2023-06-22T05:40:09;20.30;99.90
15083;DHT22;7640;53.116;6.878;2023-06-22T05:42:38;20.40;99.90
15083;DHT22;7640;53.116;6.878;2023-06-22T05:45:07;20.50;99.90
15083;DHT22;7640;53.116;6.878;2023-06-22T05:47:36;20.60;99.90
15083;DHT22;7640;53.116;6.878;2023-06-22T05:50:06;20.70;99.90
15083;DHT22;7640;53.116;6.878;2023-06-22T05:52:40;20.80;99.90
15083;DHT22;7640;53.116;6.878;2023-06-22T05:55:09;20.90;99.90
15083;DHT22;7640;53.116;6.878;2023-06-22T05:57:38;20.90;99.90
15083;DHT22;7640;53.116;6.878;2023-06-22T06:00:07;21.00;99.90
15083;DHT22;7640;53.116;6.878;2023-06-22T06:02:39;21.10;99.90
15083;DHT22;7640;53.116;6.878;2023-06-22T06:05:11;21.20;99.90
15083;DHT22;7640;53.116;6.878;2023-06-22T06:07:43;21.20;99.90
15083;DHT22;7640;53.116;6.878;2023-06-22T06:10:11;21.40;99.90
15083;DHT22;7640;53.116;6.878;2023-06-22T06:12:41;21.50;99.90
15083;DHT22;7640;53.116;6.878;2023-06-22T06:15:10;21.50;99.90
15083;DHT22;7640;53.116;6.878;2023-06-22T06:17:45;21.60;99.90
15083;DHT22;7640;53.116;6.878;2023-06-22T06:20:15;21.80;99.90
15083;DHT22;7640;53.116;6.878;2023-06-22T06:22:45;21.80;99.90
15083;DHT22;7640;53.116;6.878;2023-06-22T06:25:14;21.80;99.90
15083;DHT22;7640;53.116;6.878;2023-06-22T06:27:43;21.90;99.90
15083;DHT22;7640;53.116;6.878;2023-06-22T06:30:13;21.90;99.90
15083;DHT22;7640;53.116;6.878;2023-06-22T06:32:43;22.00;99.90
15083;DHT22;7640;53.116;6.878;2023-06-22T06:35:14;22.00;99.90
15083;DHT22;7640;53.116;6.878;2023-06-22T06:37:46;22.10;99.90
15083;DHT22;7640;53.116;6.878;2023-06-22T06:40:17;22.10;99.90
15083;DHT22;7640;53.116;6.878;2023-06-22T06:42:48;22.20;99.90
15083;DHT22;7640;53.116;6.878;2023-06-22T06:45:18;22.30;99.90
15083;DHT22;7640;53.116;6.878;2023-06-22T06:47:50;22.40;99.90
15083;DHT22;7640;53.116;6.878;2023-06-22T06:50:20;22.50;99.90
15083;DHT22;7640;53.116;6.878;2023-06-22T06:52:50;22.60;99.90
15083;DHT22;7640;53.116;6.878;2023-06-22T06:55:19;22.70;99.90
15083;DHT22;7640;53.116;6.878;2023-06-22T06:57:47;22.80;99.90
15083;DHT22;7640;53.116;6.878;2023-06-22T07:00:17;22.90;99.90
15083;DHT22;7640;53.116;6.878;2023-06-22T07:02:46;23.00;99.90
15083;DHT22;7640;53.116;6.878;2023-06-22T07:05:16;23.10;99.90
15083;DHT22;7640;53.116;6.878;2023-06-22T07:07:44;23.20;99.90
15083;DHT22;7640;53.116;6.878;2023-06-22T07:10:14;23.30;99.90
15083;DHT22;7640;53.116;6.878;2023-06-22T07:12:43;23.30;99.90
15083;DHT22;7640;53.116;6.878;2023-06-22T07:15:12;23.40;99.90
15083;DHT22;7640;53.116;6.878;2023-06-22T07:17:42;23.50;99.90
15083;DHT22;7640;53.116;6.878;2023-06-22T07:20:11;23.60;99.90
15083;DHT22;7640;53.116;6.878;2023-06-22T07:22:41;23.60;99.90
15083;DHT22;7640;53.116;6.878;2023-06-22T07:25:11;23.70;99.90
15083;DHT22;7640;53.116;6.878;2023-06-22T07:27:46;23.70;99.90
15083;DHT22;7640;53.116;6.878;2023-06-22T07:30:26;23.80;99.90
15083;DHT22;7640;53.116;6.878;2023-06-22T07:32:56;23.90;99.90
15083;DHT22;7640;53.116;6.878;2023-06-22T07:35:25;24.00;99.90
15083;DHT22;7640;53.116;6.878;2023-06-22T07:37:55;24.10;99.90
15083;DHT22;7640;53.116;6.878;2023-06-22T07:40:24;24.20;99.90
15083;DHT22;7640;53.116;6.878;2023-06-22T07:42:55;24.30;99.90
15083;DHT22;7640;53.116;6.878;2023-06-22T07:45:23;24.30;99.90
15083;DHT22;7640;53.116;6.878;2023-06-22T07:47:52;24.40;99.90
15083;DHT22;7640;53.116;6.878;2023-06-22T07:50:20;24.50;99.90
15083;DHT22;7640;53.116;6.878;2023-06-22T07:52:50;24.60;99.90
15083;DHT22;7640;53.116;6.878;2023-06-22T07:55:23;24.60;99.90
15083;DHT22;7640;53.116;6.878;2023-06-22T07:57:52;24.60;99.90
15083;DHT22;7640;53.116;6.878;2023-06-22T08:00:22;24.70;99.90
15083;DHT22;7640;53.116;6.878;2023-06-22T08:02:51;24.80;99.90
15083;DHT22;7640;53.116;6.878;2023-06-22T08:05:20;25.00;99.90
15083;DHT22;7640;53.116;6.878;2023-06-22T08:07:49;25.00;99.90
15083;DHT22;7640;53.116;6.878;2023-06-22T08:10:18;25.10;99.90
15083;DHT22;7640;53.116;6.878;2023-06-22T08:12:50;25.20;99.90
15083;DHT22;7640;53.116;6.878;2023-06-22T08:15:19;25.20;99.90
15083;DHT22;7640;53.116;6.878;2023-06-22T08:17:50;25.30;99.90
15083;DHT22;7640;53.116;6.878;2023-06-22T08:20:19;25.40;99.90
15083;DHT22;7640;53.116;6.878;2023-06-22T08:22:48;25.60;99.90
15083;DHT22;7640;53.116;6.878;2023-06-22T08:25:17;25.60;99.90
15083;DHT22;7640;53.116;6.878;2023-06-22T08:27:46;25.80;99.90
15083;DHT22;7640;53.116;6.878;2023-06-22T08:30:16;25.80;99.90
15083;DHT22;7640;53.116;6.878;2023-06-22T08:32:45;25.90;99.90
15083;DHT22;7640;53.116;6.878;2023-06-22T08:35:15;26.00;99.90
15083;DHT22;7640;53.116;6.878;2023-06-22T08:37:44;26.10;99.90
15083;DHT22;7640;53.116;6.878;2023-06-22T08:40:18;26.20;99.90
15083;DHT22;7640;53.116;6.878;2023-06-22T08:42:48;26.30;99.90
15083;DHT22;7640;53.116;6.878;2023-06-22T08:45:16;26.40;99.90
15083;DHT22;7640;53.116;6.878;2023-06-22T08:47:45;26.40;99.90
15083;DHT22;7640;53.116;6.878;2023-06-22T08:50:15;26.40;99.90
15083;DHT22;7640;53.116;6.878;2023-06-22T08:52:44;26.50;99.90
15083;DHT22;7640;53.116;6.878;2023-06-22T08:55:13;26.50;99.90
15083;DHT22;7640;53.116;6.878;2023-06-22T08:57:42;26.60;99.90
15083;DHT22;7640;53.116;6.878;2023-06-22T09:00:11;26.70;99.90
15083;DHT22;7640;53.116;6.878;2023-06-22T09:02:45;26.70;99.90
15083;DHT22;7640;53.116;6.878;2023-06-22T09:05:16;26.80;99.90
15083;DHT22;7640;53.116;6.878;2023-06-22T09:07:45;26.80;99.90
15083;DHT22;7640;53.116;6.878;2023-06-22T09:10:14;26.90;99.90
15083;DHT22;7640;53.116;6.878;2023-06-22T09:12:42;27.00;99.90
15083;DHT22;7640;53.116;6.878;2023-06-22T09:15:11;27.10;99.90
15083;DHT22;7640;53.116;6.878;2023-06-22T09:17:44;27.10;99.90
15083;DHT22;7640;53.116;6.878;2023-06-22T09:20:15;27.10;99.90
15083;DHT22;7640;53.116;6.878;2023-06-22T09:22:44;27.10;99.90
15083;DHT22;7640;53.116;6.878;2023-06-22T09:25:13;27.20;99.90
15083;DHT22;7640;53.116;6.878;2023-06-22T09:27:41;27.20;99.90
15083;DHT22;7640;53.116;6.878;2023-06-22T09:30:11;27.30;99.90
15083;DHT22;7640;53.116;6.878;2023-06-22T09:32:40;27.40;99.90
15083;DHT22;7640;53.116;6.878;2023-06-22T09:35:09;27.50;99.90
15083;DHT22;7640;53.116;6.878;2023-06-22T09:37:41;27.50;99.90
15083;DHT22;7640;53.116;6.878;2023-06-22T09:40:10;27.60;99.90
15083;DHT22;7640;53.116;6.878;2023-06-22T09:42:40;27.80;99.90
15083;DHT22;7640;53.116;6.878;2023-06-22T09:45:10;27.90;99.90
15083;DHT22;7640;53.116;6.878;2023-06-22T09:47:38;27.90;99.90
15083;DHT22;7640;53.116;6.878;2023-06-22T09:50:07;28.00;99.90
15083;DHT22;7640;53.116;6.878;2023-06-22T09:52:36;28.20;99.90
15083;DHT22;7640;53.116;6.878;2023-06-22T09:55:09;28.20;99.90
15083;DHT22;7640;53.116;6.878;2023-06-22T09:57:38;28.40;99.90
15083;DHT22;7640;53.116;6.878;2023-06-22T10:00:08;28.50;99.90
15083;DHT22;7640;53.116;6.878;2023-06-22T10:02:39;28.50;99.90
15083;DHT22;7640;53.116;6.878;2023-06-22T10:05:08;28.60;99.90
15083;DHT22;7640;53.116;6.878;2023-06-22T10:07:37;28.70;99.90
15083;DHT22;7640;53.116;6.878;2023-06-22T10:10:11;28.80;99.90
15083;DHT22;7640;53.116;6.878;2023-06-22T10:12:42;28.90;99.90
15083;DHT22;7640;53.116;6.878;2023-06-22T10:15:13;29.00;99.90
15083;DHT22;7640;53.116;6.878;2023-06-22T10:17:42;29.10;99.90
15083;DHT22;7640;53.116;6.878;2023-06-22T10:20:11;29.20;99.90
15083;DHT22;7640;53.116;6.878;2023-06-22T10:22:41;29.20;99.90
15083;DHT22;7640;53.116;6.878;2023-06-22T10:25:12;29.30;99.90
15083;DHT22;7640;53.116;6.878;2023-06-22T10:27:41;29.30;99.90
15083;DHT22;7640;53.116;6.878;2023-06-22T10:30:12;29.40;99.90
15083;DHT22;7640;53.116;6.878;2023-06-22T10:32:41;29.50;99.90
15083;DHT22;7640;53.116;6.878;2023-06-22T10:35:11;29.60;99.90
15083;DHT22;7640;53.116;6.878;2023-06-22T10:37:43;29.70;99.90
15083;DHT22;7640;53.116;6.878;2023-06-22T10:40:15;29.80;99.90
15083;DHT22;7640;53.116;6.878;2023-06-22T10:42:45;30.00;99.90
15083;DHT22;7640;53.116;6.878;2023-06-22T10:45:14;30.00;99.90
15083;DHT22;7640;53.116;6.878;2023-06-22T10:47:42;30.10;99.90
15083;DHT22;7640;53.116;6.878;2023-06-22T10:50:12;30.20;99.90
15083;DHT22;7640;53.116;6.878;2023-06-22T10:52:41;30.20;99.90
15083;DHT22;7640;53.116;6.878;2023-06-22T10:55:10;30.30;99.90
15083;DHT22;7640;53.116;6.878;2023-06-22T10:57:40;30.40;99.90
15083;DHT22;7640;53.116;6.878;2023-06-22T11:00:14;30.40;99.90
15083;DHT22;7640;53.116;6.878;2023-06-22T11:02:44;30.60;99.90
15083;DHT22;7640;53.116;6.878;2023-06-22T11:05:13;30.70;99.90
15083;DHT22;7640;53.116;6.878;2023-06-22T11:07:42;30.70;99.90
15083;DHT22;7640;53.116;6.878;2023-06-22T11:10:13;30.70;99.90
15083;DHT22;7640;53.116;6.878;2023-06-22T11:12:43;30.80;99.90
15083;DHT22;7640;53.116;6.878;2023-06-22T11:15:12;30.90;99.90
15083;DHT22;7640;53.116;6.878;2023-06-22T11:17:41;30.90;99.90
15083;DHT22;7640;53.116;6.878;2023-06-22T11:20:11;31.00;99.90
15083;DHT22;7640;53.116;6.878;2023-06-22T11:22:40;31.10;99.90
15083;DHT22;7640;53.116;6.878;2023-06-22T11:25:10;31.10;99.90
15083;DHT22;7640;53.116;6.878;2023-06-22T11:27:40;31.20;99.90
15083;DHT22;7640;53.116;6.878;2023-06-22T11:30:10;31.20;99.80
15083;DHT22;7640;53.116;6.878;2023-06-22T11:32:40;31.20;99.90
15083;DHT22;7640;53.116;6.878;2023-06-22T11:35:08;31.20;99.90
15083;DHT22;7640;53.116;6.878;2023-06-22T11:37:37;31.30;99.90
15083;DHT22;7640;53.116;6.878;2023-06-22T11:40:07;31.40;99.90
15083;DHT22;7640;53.116;6.878;2023-06-22T11:42:36;31.50;99.30
15083;DHT22;7640;53.116;6.878;2023-06-22T11:45:06;31.40;98.90
15083;DHT22;7640;53.116;6.878;2023-06-22T11:47:36;31.40;98.80
15083;DHT22;7640;53.116;6.878;2023-06-22T11:50:07;31.50;99.10
15083;DHT22;7640;53.116;6.878;2023-06-22T11:52:36;31.60;98.60
15083;DHT22;7640;53.116;6.878;2023-06-22T11:55:06;31.60;98.20
15083;DHT22;7640;53.116;6.878;2023-06-22T11:57:37;31.50;98.50
15083;DHT22;7640;53.116;6.878;2023-06-22T12:00:07;31.50;98.40
15083;DHT22;7640;53.116;6.878;2023-06-22T12:02:46;31.50;98.60
15083;DHT22;7640;53.116;6.878;2023-06-22T12:05:15;31.50;98.30
15083;DHT22;7640;53.116;6.878;2023-06-22T12:07:44;31.60;98.70
15083;DHT22;7640;53.116;6.878;2023-06-22T12:10:13;31.60;98.40
15083;DHT22;7640;53.116;6.878;2023-06-22T12:12:41;31.80;98.20
15083;DHT22;7640;53.116;6.878;2023-06-22T12:15:10;31.90;98.10
15083;DHT22;7640;53.116;6.878;2023-06-22T12:17:40;32.10;97.80
15083;DHT22;7640;53.116;6.878;2023-06-22T12:20:11;32.20;97.20
15083;DHT22;7640;53.116;6.878;2023-06-22T12:22:40;32.30;97.00
15083;DHT22;7640;53.116;6.878;2023-06-22T12:25:10;32.40;96.80
15083;DHT22;7640;53.116;6.878;2023-06-22T12:27:38;32.40;96.30
15083;DHT22;7640;53.116;6.878;2023-06-22T12:30:09;32.50;96.00
15083;DHT22;7640;53.116;6.878;2023-06-22T12:32:37;32.50;96.20
15083;DHT22;7640;53.116;6.878;2023-06-22T12:35:07;32.50;96.00
15083;DHT22;7640;53.116;6.878;2023-06-22T12:37:43;32.40;96.30
15083;DHT22;7640;53.116;6.878;2023-06-22T12:40:12;32.40;96.20
15083;DHT22;7640;53.116;6.878;2023-06-22T12:42:41;32.50;96.20
15083;DHT22;7640;53.116;6.878;2023-06-22T12:45:10;32.60;96.00
15083;DHT22;7640;53.116;6.878;2023-06-22T12:47:39;32.70;96.00
15083;DHT22;7640;53.116;6.878;2023-06-22T12:50:09;32.70;95.60
15083;DHT22;7640;53.116;6.878;2023-06-22T12:52:39;32.80;95.40
15083;DHT22;7640;53.116;6.878;2023-06-22T12:55:10;32.70;95.10
15083;DHT22;7640;53.116;6.878;2023-06-22T12:57:38;32.50;95.00
15083;DHT22;7640;53.116;6.878;2023-06-22T13:00:08;32.50;95.50
15083;DHT22;7640;53.116;6.878;2023-06-22T13:02:38;32.30;95.30
15083;DHT22;7640;53.116;6.878;2023-06-22T13:05:07;32.20;95.20
15083;DHT22;7640;53.116;6.878;2023-06-22T13:07:37;32.10;95.10
15083;DHT22;7640;53.116;6.878;2023-06-22T13:10:06;32.00;95.20
15083;DHT22;7640;53.116;6.878;2023-06-22T13:12:36;31.90;95.10
15083;DHT22;7640;53.116;6.878;2023-06-22T13:15:06;31.80;95.00
15083;DHT22;7640;53.116;6.878;2023-06-22T13:17:35;31.60;95.30
15083;DHT22;7640;53.116;6.878;2023-06-22T13:20:05;31.50;95.30
15083;DHT22;7640;53.116;6.878;2023-06-22T13:22:35;31.40;95.30
15083;DHT22;7640;53.116;6.878;2023-06-22T13:25:08;31.20;95.30
15083;DHT22;7640;53.116;6.878;2023-06-22T13:27:41;30.90;95.50
15083;DHT22;7640;53.116;6.878;2023-06-22T13:30:10;30.80;96.00
15083;DHT22;7640;53.116;6.878;2023-06-22T13:32:41;30.80;96.00
15083;DHT22;7640;53.116;6.878;2023-06-22T13:35:10;30.70;96.10
15083;DHT22;7640;53.116;6.878;2023-06-22T13:37:40;30.60;95.90
15083;DHT22;7640;53.116;6.878;2023-06-22T13:40:09;30.50;96.00
15083;DHT22;7640;53.116;6.878;2023-06-22T13:42:38;30.50;96.20
15083;DHT22;7640;53.116;6.878;2023-06-22T13:45:09;30.50;96.50
15083;DHT22;7640;53.116;6.878;2023-06-22T13:47:38;30.50;96.50
15083;DHT22;7640;53.116;6.878;2023-06-22T13:50:08;30.40;96.70
15083;DHT22;7640;53.116;6.878;2023-06-22T13:52:37;30.30;96.60
15083;DHT22;7640;53.116;6.878;2023-06-22T13:55:06;30.20;97.00
15083;DHT22;7640;53.116;6.878;2023-06-22T13:57:35;30.10;97.40
15083;DHT22;7640;53.116;6.878;2023-06-22T14:00:05;30.00;97.80
15083;DHT22;7640;53.116;6.878;2023-06-22T14:02:36;29.80;98.50
15083;DHT22;7640;53.116;6.878;2023-06-22T14:05:05;29.80;98.60
15083;DHT22;7640;53.116;6.878;2023-06-22T14:07:35;29.70;98.70
15083;DHT22;7640;53.116;6.878;2023-06-22T14:10:05;29.60;98.90
15083;DHT22;7640;53.116;6.878;2023-06-22T14:12:34;29.50;98.80
15083;DHT22;7640;53.116;6.878;2023-06-22T14:15:03;29.30;98.70
15083;DHT22;7640;53.116;6.878;2023-06-22T14:17:34;29.10;98.90
15083;DHT22;7640;53.116;6.878;2023-06-22T14:20:03;29.00;99.20
15083;DHT22;7640;53.116;6.878;2023-06-22T14:22:35;28.90;99.30
15083;DHT22;7640;53.116;6.878;2023-06-22T14:25:05;28.70;99.40
15083;DHT22;7640;53.116;6.878;2023-06-22T14:27:34;28.50;99.30
15083;DHT22;7640;53.116;6.878;2023-06-22T14:30:03;28.30;99.60
15083;DHT22;7640;53.116;6.878;2023-06-22T14:32:34;28.30;99.90
15083;DHT22;7640;53.116;6.878;2023-06-22T14:35:05;28.20;99.90
15083;DHT22;7640;53.116;6.878;2023-06-22T14:37:34;28.20;99.90
15083;DHT22;7640;53.116;6.878;2023-06-22T14:40:02;28.10;99.90
15083;DHT22;7640;53.116;6.878;2023-06-22T14:42:31;28.10;99.90
15083;DHT22;7640;53.116;6.878;2023-06-22T14:45:00;28.10;99.90
15083;DHT22;7640;53.116;6.878;2023-06-22T14:47:29;28.10;99.90
15083;DHT22;7640;53.116;6.878;2023-06-22T14:49:59;28.00;99.90
15083;DHT22;7640;53.116;6.878;2023-06-22T14:52:28;28.00;99.90
15083;DHT22;7640;53.116;6.878;2023-06-22T14:54:57;27.90;99.90
15083;DHT22;7640;53.116;6.878;2023-06-22T14:57:25;27.80;99.90
15083;DHT22;7640;53.116;6.878;2023-06-22T14:59:54;27.60;99.90
15083;DHT22;7640;53.116;6.878;2023-06-22T15:02:23;27.50;99.90
15083;DHT22;7640;53.116;6.878;2023-06-22T15:04:51;27.40;99.90
15083;DHT22;7640;53.116;6.878;2023-06-22T15:07:22;27.20;99.90
15083;DHT22;7640;53.116;6.878;2023-06-22T15:09:51;27.10;99.90
15083;DHT22;7640;53.116;6.878;2023-06-22T15:12:19;27.00;99.90
15083;DHT22;7640;53.116;6.878;2023-06-22T15:14:50;27.00;99.90
15083;DHT22;7640;53.116;6.878;2023-06-22T15:17:18;26.90;99.90
15083;DHT22;7640;53.116;6.878;2023-06-22T15:19:48;26.90;99.90
15083;DHT22;7640;53.116;6.878;2023-06-22T15:22:17;26.90;99.90
15083;DHT22;7640;53.116;6.878;2023-06-22T15:24:48;26.80;99.90
15083;DHT22;7640;53.116;6.878;2023-06-22T15:27:20;26.70;99.90
15083;DHT22;7640;53.116;6.878;2023-06-22T15:29:50;26.60;99.90
15083;DHT22;7640;53.116;6.878;2023-06-22T15:32:19;26.60;99.90
15083;DHT22;7640;53.116;6.878;2023-06-22T15:34:47;26.60;99.90
15083;DHT22;7640;53.116;6.878;2023-06-22T15:37:17;26.60;99.90
15083;DHT22;7640;53.116;6.878;2023-06-22T15:39:47;26.50;99.90
15083;DHT22;7640;53.116;6.878;2023-06-22T15:42:16;26.40;99.90
15083;DHT22;7640;53.116;6.878;2023-06-22T15:44:45;26.40;99.90
15083;DHT22;7640;53.116;6.878;2023-06-22T15:47:13;26.20;99.90
15083;DHT22;7640;53.116;6.878;2023-06-22T15:49:43;26.10;99.90
15083;DHT22;7640;53.116;6.878;2023-06-22T15:52:12;26.10;99.90
15083;DHT22;7640;53.116;6.878;2023-06-22T15:54:44;26.00;99.90
15083;DHT22;7640;53.116;6.878;2023-06-22T15:57:15;25.90;99.90
15083;DHT22;7640;53.116;6.878;2023-06-22T15:59:43;25.80;99.90
15083;DHT22;7640;53.116;6.878;2023-06-22T16:02:12;25.70;99.90